sensor_id;sensor_type;location;lat;lon;timestamp;temperature;humidity
48535;DHT22;34323;52.022;5.686;2023-03-21T00:01:52;14.40;99.90
48535;DHT22;34323;52.022;5.686;2023-03-21T00:04:18;14.10;99.90
48535;DHT22;34323;52.022;5.686;2023-03-21T00:06:44;14.20;99.90
48535;DHT22;34323;52.022;5.686;2023-03-21T00:09:10;14.50;99.90
48535;DHT22;34323;52.022;5.686;2023-03-21T00:11:37;14.60;99.90
48535;DHT22;34323;52.022;5.686;2023-03-21T00:14:03;14.40;99.90
48535;DHT22;34323;52.022;5.686;2023-03-21T00:16:28;14.40;99.90
48535;DHT22;34323;52.022;5.686;2023-03-21T00:18:57;14.60;99.90
48535;DHT22;34323;52.022;5.686;2023-03-21T00:21:24;14.10;99.90
48535;DHT22;34323;52.022;5.686;2023-03-21T00:23:53;13.80;99.90
48535;DHT22;34323;52.022;5.686;2023-03-21T00:26:19;13.50;99.90
48535;DHT22;34323;52.022;5.686;2023-03-21T00:28:47;13.40;99.90
48535;DHT22;34323;52.022;5.686;2023-03-21T00:31:12;13.10;99.90
48535;DHT22;34323;52.022;5.686;2023-03-21T00:33:38;13.20;99.90
48535;DHT22;34323;52.022;5.686;2023-03-21T00:36:05;13.00;99.90
48535;DHT22;34323;52.022;5.686;2023-03-21T00:38:31;13.20;99.90
48535;DHT22;34323;52.022;5.686;2023-03-21T00:40:56;13.30;99.90
48535;DHT22;34323;52.022;5.686;2023-03-21T00:43:22;13.50;99.90
48535;DHT22;34323;52.022;5.686;2023-03-21T00:45:55;12.80;99.90
48535;DHT22;34323;52.022;5.686;2023-03-21T00:48:21;13.00;99.90
48535;DHT22;34323;52.022;5.686;2023-03-21T00:50:47;12.70;99.90
48535;DHT22;34323;52.022;5.686;2023-03-21T00:53:13;12.80;99.90
48535;DHT22;34323;52.022;5.686;2023-03-21T00:55:40;13.10;99.90
48535;DHT22;34323;52.022;5.686;2023-03-21T00:58:06;13.30;99.90
48535;DHT22;34323;52.022;5.686;2023-03-21T01:00:32;13.10;99.90
48535;DHT22;34323;52.022;5.686;2023-03-21T01:02:58;13.20;99.90
48535;DHT22;34323;52.022;5.686;2023-03-21T01:05:31;13.50;99.90
48535;DHT22;34323;52.022;5.686;2023-03-21T01:08:17;13.60;99.90
48535;DHT22;34323;52.022;5.686;2023-03-21T01:10:45;13.50;99.90
48535;DHT22;34323;52.022;5.686;2023-03-21T01:13:12;13.50;99.90
48535;DHT22;34323;52.022;5.686;2023-03-21T01:15:50;13.60;99.90
48535;DHT22;34323;52.022;5.686;2023-03-21T01:18:17;13.40;99.90
48535;DHT22;34323;52.022;5.686;2023-03-21T01:20:43;13.20;99.90
48535;DHT22;34323;52.022;5.686;2023-03-21T01:23:11;13.20;99.90
48535;DHT22;34323;52.022;5.686;2023-03-21T01:25:37;13.50;99.90
48535;DHT22;34323;52.022;5.686;2023-03-21T01:28:03;13.20;99.90
48535;DHT22;34323;52.022;5.686;2023-03-21T01:30:28;13.00;99.90
48535;DHT22;34323;52.022;5.686;2023-03-21T01:32:54;13.00;99.90
48535;DHT22;34323;52.022;5.686;2023-03-21T01:35:19;13.20;99.90
48535;DHT22;34323;52.022;5.686;2023-03-21T01:37:45;13.50;99.90
48535;DHT22;34323;52.022;5.686;2023-03-21T01:40:24;13.80;99.90
48535;DHT22;34323;52.022;5.686;2023-03-21T01:42:51;14.00;99.90
48535;DHT22;34323;52.022;5.686;2023-03-21T01:48:20;13.80;99.90
48535;DHT22;34323;52.022;5.686;2023-03-21T01:50:46;14.00;99.90
48535;DHT22;34323;52.022;5.686;2023-03-21T01:53:13;13.40;99.90
48535;DHT22;34323;52.022;5.686;2023-03-21T01:55:39;13.40;99.90
48535;DHT22;34323;52.022;5.686;2023-03-21T01:58:05;13.30;99.90
48535;DHT22;34323;52.022;5.686;2023-03-21T02:00:34;13.10;99.90
48535;DHT22;34323;52.022;5.686;2023-03-21T02:03:04;13.20;99.90
48535;DHT22;34323;52.022;5.686;2023-03-21T02:05:43;13.40;99.90
48535;DHT22;34323;52.022;5.686;2023-03-21T02:08:15;13.40;99.90
48535;DHT22;34323;52.022;5.686;2023-03-21T02:10:42;13.10;99.90
48535;DHT22;34323;52.022;5.686;2023-03-21T02:13:09;13.10;99.90
48535;DHT22;34323;52.022;5.686;2023-03-21T02:15:41;13.40;99.90
48535;DHT22;34323;52.022;5.686;2023-03-21T02:18:13;13.10;99.90
48535;DHT22;34323;52.022;5.686;2023-03-21T02:20:56;12.90;99.90
48535;DHT22;34323;52.022;5.686;2023-03-21T02:24:00;13.00;99.90
48535;DHT22;34323;52.022;5.686;2023-03-21T02:29:17;13.10;99.90
48535;DHT22;34323;52.022;5.686;2023-03-21T02:32:07;13.00;99.90
48535;DHT22;34323;52.022;5.686;2023-03-21T02:37:34;12.90;99.90
48535;DHT22;34323;52.022;5.686;2023-03-21T02:40:29;12.80;99.90
48535;DHT22;34323;52.022;5.686;2023-03-21T02:43:12;13.00;99.90
48535;DHT22;34323;52.022;5.686;2023-03-21T02:45:56;13.30;99.90
48535;DHT22;34323;52.022;5.686;2023-03-21T02:48:30;13.40;99.90
48535;DHT22;34323;52.022;5.686;2023-03-21T02:50:59;13.80;99.90
48535;DHT22;34323;52.022;5.686;2023-03-21T02:53:30;14.00;99.90
48535;DHT22;34323;52.022;5.686;2023-03-21T02:55:59;13.90;99.90
48535;DHT22;34323;52.022;5.686;2023-03-21T02:58:27;14.00;99.90
48535;DHT22;34323;52.022;5.686;2023-03-21T03:00:53;13.70;99.90
48535;DHT22;34323;52.022;5.686;2023-03-21T03:03:20;13.50;99.90
48535;DHT22;34323;52.022;5.686;2023-03-21T03:05:52;13.70;99.90
48535;DHT22;34323;52.022;5.686;2023-03-21T03:08:25;13.80;99.90
48535;DHT22;34323;52.022;5.686;2023-03-21T03:11:05;13.60;99.90
48535;DHT22;34323;52.022;5.686;2023-03-21T03:13:42;13.80;99.90
48535;DHT22;34323;52.022;5.686;2023-03-21T03:16:26;13.70;99.90
48535;DHT22;34323;52.022;5.686;2023-03-21T03:18:57;13.50;99.90
48535;DHT22;34323;52.022;5.686;2023-03-21T03:21:30;13.50;99.90
48535;DHT22;34323;52.022;5.686;2023-03-21T03:29:19;13.60;99.90
48535;DHT22;34323;52.022;5.686;2023-03-21T03:31:53;13.70;99.90
48535;DHT22;34323;52.022;5.686;2023-03-21T03:34:24;13.70;99.90
48535;DHT22;34323;52.022;5.686;2023-03-21T03:36:54;13.60;99.90
48535;DHT22;34323;52.022;5.686;2023-03-21T03:39:26;13.60;99.90
48535;DHT22;34323;52.022;5.686;2023-03-21T03:42:05;13.20;99.90
48535;DHT22;34323;52.022;5.686;2023-03-21T03:44:34;13.30;99.90
48535;DHT22;34323;52.022;5.686;2023-03-21T03:47:05;13.30;99.90
48535;DHT22;34323;52.022;5.686;2023-03-21T03:49:41;13.20;99.90
48535;DHT22;34323;52.022;5.686;2023-03-21T03:52:36;13.20;99.90
48535;DHT22;34323;52.022;5.686;2023-03-21T03:55:01;13.20;99.90
48535;DHT22;34323;52.022;5.686;2023-03-21T03:57:28;12.70;99.90
48535;DHT22;34323;52.022;5.686;2023-03-21T03:59:54;11.90;99.90
48535;DHT22;34323;52.022;5.686;2023-03-21T04:02:20;12.10;99.90
48535;DHT22;34323;52.022;5.686;2023-03-21T04:04:45;12.20;99.90
48535;DHT22;34323;52.022;5.686;2023-03-21T04:07:11;12.40;99.90
48535;DHT22;34323;52.022;5.686;2023-03-21T04:09:37;12.50;99.90
48535;DHT22;34323;52.022;5.686;2023-03-21T04:12:03;13.00;99.90
48535;DHT22;34323;52.022;5.686;2023-03-21T04:14:28;13.50;99.90
48535;DHT22;34323;52.022;5.686;2023-03-21T04:16:54;13.60;99.90
48535;DHT22;34323;52.022;5.686;2023-03-21T04:19:20;13.60;99.90
48535;DHT22;34323;52.022;5.686;2023-03-21T04:21:45;13.50;99.90
48535;DHT22;34323;52.022;5.686;2023-03-21T04:24:13;13.20;99.90
48535;DHT22;34323;52.022;5.686;2023-03-21T04:26:39;13.20;99.90
48535;DHT22;34323;52.022;5.686;2023-03-21T04:29:05;13.50;99.90
48535;DHT22;34323;52.022;5.686;2023-03-21T04:31:32;13.90;99.90
48535;DHT22;34323;52.022;5.686;2023-03-21T04:34:04;14.00;99.90
48535;DHT22;34323;52.022;5.686;2023-03-21T04:36:35;14.10;99.90
48535;DHT22;34323;52.022;5.686;2023-03-21T04:39:05;14.50;99.90
48535;DHT22;34323;52.022;5.686;2023-03-21T04:41:43;14.80;99.90
48535;DHT22;34323;52.022;5.686;2023-03-21T04:44:10;14.70;99.90
48535;DHT22;34323;52.022;5.686;2023-03-21T04:46:37;14.50;99.90
48535;DHT22;34323;52.022;5.686;2023-03-21T04:49:03;14.10;99.90
48535;DHT22;34323;52.022;5.686;2023-03-21T04:51:29;14.00;99.90
48535;DHT22;34323;52.022;5.686;2023-03-21T04:53:55;14.00;99.90
48535;DHT22;34323;52.022;5.686;2023-03-21T04:56:27;13.90;99.90
48535;DHT22;34323;52.022;5.686;2023-03-21T04:58:58;14.00;99.90
48535;DHT22;34323;52.022;5.686;2023-03-21T05:01:24;13.90;99.90
48535;DHT22;34323;52.022;5.686;2023-03-21T05:03:56;13.90;99.90
48535;DHT22;34323;52.022;5.686;2023-03-21T05:06:21;14.00;99.90
48535;DHT22;34323;52.022;5.686;2023-03-21T05:08:47;14.30;99.90
48535;DHT22;34323;52.022;5.686;2023-03-21T05:11:12;14.50;99.90
48535;DHT22;34323;52.022;5.686;2023-03-21T05:13:38;14.60;99.90
48535;DHT22;34323;52.022;5.686;2023-03-21T05:16:04;14.80;99.90
48535;DHT22;34323;52.022;5.686;2023-03-21T05:18:30;14.70;99.90
48535;DHT22;34323;52.022;5.686;2023-03-21T05:20:59;14.80;99.90
48535;DHT22;34323;52.022;5.686;2023-03-21T05:23:24;14.80;99.90
48535;DHT22;34323;52.022;5.686;2023-03-21T05:25:50;14.60;99.90
48535;DHT22;34323;52.022;5.686;2023-03-21T05:28:16;14.60;99.90
48535;DHT22;34323;52.022;5.686;2023-03-21T05:30:47;14.50;99.90
48535;DHT22;34323;52.022;5.686;2023-03-21T05:33:13;14.50;99.90
48535;DHT22;34323;52.022;5.686;2023-03-21T05:35:39;14.60;99.90
48535;DHT22;34323;52.022;5.686;2023-03-21T05:38:04;14.60;99.90
48535;DHT22;34323;52.022;5.686;2023-03-21T05:40:30;14.60;99.90
48535;DHT22;34323;52.022;5.686;2023-03-21T05:42:56;14.10;99.90
48535;DHT22;34323;52.022;5.686;2023-03-21T05:45:21;14.00;99.90
48535;DHT22;34323;52.022;5.686;2023-03-21T05:47:47;14.10;99.90
48535;DHT22;34323;52.022;5.686;2023-03-21T05:50:13;14.30;99.90
48535;DHT22;34323;52.022;5.686;2023-03-21T05:52:39;14.60;99.90
48535;DHT22;34323;52.022;5.686;2023-03-21T05:55:05;14.90;99.90
48535;DHT22;34323;52.022;5.686;2023-03-21T05:57:31;15.00;99.90
48535;DHT22;34323;52.022;5.686;2023-03-21T06:00:00;15.00;99.90
48535;DHT22;34323;52.022;5.686;2023-03-21T06:02:26;14.90;99.90
48535;DHT22;34323;52.022;5.686;2023-03-21T06:04:52;14.80;99.90
48535;DHT22;34323;52.022;5.686;2023-03-21T06:07:17;14.90;99.90
48535;DHT22;34323;52.022;5.686;2023-03-21T06:09:43;14.80;99.90
48535;DHT22;34323;52.022;5.686;2023-03-21T06:12:09;14.80;99.90
48535;DHT22;34323;52.022;5.686;2023-03-21T06:14:35;14.80;99.90
48535;DHT22;34323;52.022;5.686;2023-03-21T06:17:01;14.80;99.90
48535;DHT22;34323;52.022;5.686;2023-03-21T06:19:26;14.80;99.90
48535;DHT22;34323;52.022;5.686;2023-03-21T06:21:52;14.50;99.90
48535;DHT22;34323;52.022;5.686;2023-03-21T06:24:17;14.40;99.90
48535;DHT22;34323;52.022;5.686;2023-03-21T06:26:44;14.50;99.90
48535;DHT22;34323;52.022;5.686;2023-03-21T06:29:09;14.50;99.90
48535;DHT22;34323;52.022;5.686;2023-03-21T06:31:35;14.40;99.90
48535;DHT22;34323;52.022;5.686;2023-03-21T06:34:01;14.30;99.90
48535;DHT22;34323;52.022;5.686;2023-03-21T06:36:27;14.40;99.90
48535;DHT22;34323;52.022;5.686;2023-03-21T06:38:52;14.30;99.90
48535;DHT22;34323;52.022;5.686;2023-03-21T06:41:18;14.50;99.90
48535;DHT22;34323;52.022;5.686;2023-03-21T06:43:44;14.70;99.90
48535;DHT22;34323;52.022;5.686;2023-03-21T06:46:10;14.80;99.90
48535;DHT22;34323;52.022;5.686;2023-03-21T06:48:36;14.70;99.90
48535;DHT22;34323;52.022;5.686;2023-03-21T06:51:03;14.90;99.90
48535;DHT22;34323;52.022;5.686;2023-03-21T06:53:29;14.80;99.90
48535;DHT22;34323;52.022;5.686;2023-03-21T06:55:57;15.00;99.90
48535;DHT22;34323;52.022;5.686;2023-03-21T06:58:22;15.20;99.90
48535;DHT22;34323;52.022;5.686;2023-03-21T07:00:48;15.20;99.90
48535;DHT22;34323;52.022;5.686;2023-03-21T07:03:14;15.00;99.90
48535;DHT22;34323;52.022;5.686;2023-03-21T07:05:40;14.80;99.90
48535;DHT22;34323;52.022;5.686;2023-03-21T07:08:07;14.70;99.90
48535;DHT22;34323;52.022;5.686;2023-03-21T07:10:43;14.60;99.90
48535;DHT22;34323;52.022;5.686;2023-03-21T07:13:10;14.50;99.90
48535;DHT22;34323;52.022;5.686;2023-03-21T07:15:36;14.60;99.90
48535;DHT22;34323;52.022;5.686;2023-03-21T07:18:03;14.30;99.90
48535;DHT22;34323;52.022;5.686;2023-03-21T07:20:29;13.90;99.90
48535;DHT22;34323;52.022;5.686;2023-03-21T07:22:55;13.90;99.90
48535;DHT22;34323;52.022;5.686;2023-03-21T07:25:21;14.30;99.90
48535;DHT22;34323;52.022;5.686;2023-03-21T07:27:46;14.30;99.90
48535;DHT22;34323;52.022;5.686;2023-03-21T07:30:12;14.40;99.90
48535;DHT22;34323;52.022;5.686;2023-03-21T07:32:38;14.40;99.90
48535;DHT22;34323;52.022;5.686;2023-03-21T07:35:09;14.40;99.90
48535;DHT22;34323;52.022;5.686;2023-03-21T07:37:36;14.50;99.90
48535;DHT22;34323;52.022;5.686;2023-03-21T07:40:02;14.30;99.90
48535;DHT22;34323;52.022;5.686;2023-03-21T07:42:31;13.40;99.90
48535;DHT22;34323;52.022;5.686;2023-03-21T07:44:57;13.40;99.90
48535;DHT22;34323;52.022;5.686;2023-03-21T07:47:22;13.50;99.90
48535;DHT22;34323;52.022;5.686;2023-03-21T07:49:48;13.80;99.90
48535;DHT22;34323;52.022;5.686;2023-03-21T07:52:13;14.20;99.90
48535;DHT22;34323;52.022;5.686;2023-03-21T07:54:39;14.20;99.90
48535;DHT22;34323;52.022;5.686;2023-03-21T07:57:05;14.10;99.90
48535;DHT22;34323;52.022;5.686;2023-03-21T07:59:31;14.30;99.90
48535;DHT22;34323;52.022;5.686;2023-03-21T08:01:57;14.50;99.90
48535;DHT22;34323;52.022;5.686;2023-03-21T08:04:22;14.50;99.90
48535;DHT22;34323;52.022;5.686;2023-03-21T08:06:49;14.20;99.90
48535;DHT22;34323;52.022;5.686;2023-03-21T08:09:15;13.90;99.90
48535;DHT22;34323;52.022;5.686;2023-03-21T08:11:40;13.50;99.90
48535;DHT22;34323;52.022;5.686;2023-03-21T08:14:06;13.80;99.90
48535;DHT22;34323;52.022;5.686;2023-03-21T08:16:32;14.10;99.90
48535;DHT22;34323;52.022;5.686;2023-03-21T08:18:57;13.80;99.90
48535;DHT22;34323;52.022;5.686;2023-03-21T08:21:23;13.10;99.90
48535;DHT22;34323;52.022;5.686;2023-03-21T08:23:48;13.00;99.90
48535;DHT22;34323;52.022;5.686;2023-03-21T08:26:14;13.30;99.90
48535;DHT22;34323;52.022;5.686;2023-03-21T08:28:42;13.60;99.90
48535;DHT22;34323;52.022;5.686;2023-03-21T08:31:09;13.20;99.90
48535;DHT22;34323;52.022;5.686;2023-03-21T08:33:36;13.20;99.90
48535;DHT22;34323;52.022;5.686;2023-03-21T08:36:03;13.10;99.90
48535;DHT22;34323;52.022;5.686;2023-03-21T08:38:29;13.20;99.90
48535;DHT22;34323;52.022;5.686;2023-03-21T08:41:01;13.40;99.90
48535;DHT22;34323;52.022;5.686;2023-03-21T08:43:27;13.70;99.90
48535;DHT22;34323;52.022;5.686;2023-03-21T08:45:54;13.50;99.90
48535;DHT22;34323;52.022;5.686;2023-03-21T08:48:20;13.00;99.90
48535;DHT22;34323;52.022;5.686;2023-03-21T08:50:45;13.00;99.90
48535;DHT22;34323;52.022;5.686;2023-03-21T08:53:11;13.30;99.90
48535;DHT22;34323;52.022;5.686;2023-03-21T08:55:37;13.20;99.90
48535;DHT22;34323;52.022;5.686;2023-03-21T08:58:03;13.40;99.90
48535;DHT22;34323;52.022;5.686;2023-03-21T09:00:29;13.20;99.90
48535;DHT22;34323;52.022;5.686;2023-03-21T09:02:55;13.50;99.90
48535;DHT22;34323;52.022;5.686;2023-03-21T09:05:23;13.50;99.90
48535;DHT22;34323;52.022;5.686;2023-03-21T09:07:50;13.80;99.90
48535;DHT22;34323;52.022;5.686;2023-03-21T09:10:19;13.90;99.90
48535;DHT22;34323;52.022;5.686;2023-03-21T09:12:46;14.30;99.90
48535;DHT22;34323;52.022;5.686;2023-03-21T09:15:12;14.30;99.90
48535;DHT22;34323;52.022;5.686;2023-03-21T09:17:39;14.50;99.90
48535;DHT22;34323;52.022;5.686;2023-03-21T09:20:10;14.60;99.90
48535;DHT22;34323;52.022;5.686;2023-03-21T09:22:44;14.80;99.90
48535;DHT22;34323;52.022;5.686;2023-03-21T09:25:10;15.00;99.90
48535;DHT22;34323;52.022;5.686;2023-03-21T09:27:37;14.80;99.90
48535;DHT22;34323;52.022;5.686;2023-03-21T09:30:04;14.60;99.90
48535;DHT22;34323;52.022;5.686;2023-03-21T09:32:31;14.50;99.90
48535;DHT22;34323;52.022;5.686;2023-03-21T09:34:58;14.00;99.90
48535;DHT22;34323;52.022;5.686;2023-03-21T09:37:24;14.20;99.90
48535;DHT22;34323;52.022;5.686;2023-03-21T09:39:49;14.50;99.90
48535;DHT22;34323;52.022;5.686;2023-03-21T09:42:28;14.60;99.90
48535;DHT22;34323;52.022;5.686;2023-03-21T09:47:44;14.70;99.90
48535;DHT22;34323;52.022;5.686;2023-03-21T09:50:17;14.70;99.90
48535;DHT22;34323;52.022;5.686;2023-03-21T09:55:32;14.60;99.90
48535;DHT22;34323;52.022;5.686;2023-03-21T10:00:48;14.40;99.90
48535;DHT22;34323;52.022;5.686;2023-03-21T10:03:28;14.80;99.90
48535;DHT22;34323;52.022;5.686;2023-03-21T10:05:56;15.40;99.90
48535;DHT22;34323;52.022;5.686;2023-03-21T10:08:30;15.30;99.90
48535;DHT22;34323;52.022;5.686;2023-03-21T10:11:11;15.30;99.90
48535;DHT22;34323;52.022;5.686;2023-03-21T10:13:50;14.90;99.90
48535;DHT22;34323;52.022;5.686;2023-03-21T10:16:28;14.40;99.90
48535;DHT22;34323;52.022;5.686;2023-03-21T10:18:55;14.30;99.90
48535;DHT22;34323;52.022;5.686;2023-03-21T10:21:23;14.50;99.90
48535;DHT22;34323;52.022;5.686;2023-03-21T10:23:51;14.50;99.90
48535;DHT22;34323;52.022;5.686;2023-03-21T10:26:20;14.70;99.90
48535;DHT22;34323;52.022;5.686;2023-03-21T10:28:48;15.00;99.90
48535;DHT22;34323;52.022;5.686;2023-03-21T10:31:16;14.90;99.90
48535;DHT22;34323;52.022;5.686;2023-03-21T10:33:45;14.60;99.90
48535;DHT22;34323;52.022;5.686;2023-03-21T10:36:29;14.30;99.90
48535;DHT22;34323;52.022;5.686;2023-03-21T10:39:08;14.10;99.90
48535;DHT22;34323;52.022;5.686;2023-03-21T10:41:37;14.00;99.90
48535;DHT22;34323;52.022;5.686;2023-03-21T10:44:13;14.10;99.90
48535;DHT22;34323;52.022;5.686;2023-03-21T10:46:52;14.10;99.90
48535;DHT22;34323;52.022;5.686;2023-03-21T10:49:18;14.30;99.90
48535;DHT22;34323;52.022;5.686;2023-03-21T10:51:48;14.50;99.90
48535;DHT22;34323;52.022;5.686;2023-03-21T10:54:19;14.70;99.90
48535;DHT22;34323;52.022;5.686;2023-03-21T10:57:10;14.90;99.90
48535;DHT22;34323;52.022;5.686;2023-03-21T10:59:46;15.20;99.90
48535;DHT22;34323;52.022;5.686;2023-03-21T11:02:19;15.70;99.90
48535;DHT22;34323;52.022;5.686;2023-03-21T11:04:45;16.10;99.90
48535;DHT22;34323;52.022;5.686;2023-03-21T11:07:13;15.80;99.90
48535;DHT22;34323;52.022;5.686;2023-03-21T11:09:44;14.70;99.90
48535;DHT22;34323;52.022;5.686;2023-03-21T11:12:14;14.70;99.90
48535;DHT22;34323;52.022;5.686;2023-03-21T11:14:46;14.50;99.90
48535;DHT22;34323;52.022;5.686;2023-03-21T11:17:19;14.40;99.90
48535;DHT22;34323;52.022;5.686;2023-03-21T11:19:59;14.40;99.90
48535;DHT22;34323;52.022;5.686;2023-03-21T11:22:28;14.80;99.90
48535;DHT22;34323;52.022;5.686;2023-03-21T11:25:05;14.90;99.90
48535;DHT22;34323;52.022;5.686;2023-03-21T11:27:31;14.70;99.90
48535;DHT22;34323;52.022;5.686;2023-03-21T11:29:59;14.70;99.90
48535;DHT22;34323;52.022;5.686;2023-03-21T11:32:32;15.10;99.90
48535;DHT22;34323;52.022;5.686;2023-03-21T11:37:42;15.40;99.90
48535;DHT22;34323;52.022;5.686;2023-03-21T11:40:21;15.10;99.90
48535;DHT22;34323;52.022;5.686;2023-03-21T11:42:55;15.00;99.90
48535;DHT22;34323;52.022;5.686;2023-03-21T11:45:26;15.00;99.90
48535;DHT22;34323;52.022;5.686;2023-03-21T11:47:54;15.00;99.90
48535;DHT22;34323;52.022;5.686;2023-03-21T11:50:36;15.20;99.90
48535;DHT22;34323;52.022;5.686;2023-03-21T11:55:58;15.40;99.90
48535;DHT22;34323;52.022;5.686;2023-03-21T12:04:02;15.50;99.90
48535;DHT22;34323;52.022;5.686;2023-03-21T12:06:51;14.90;99.90
48535;DHT22;34323;52.022;5.686;2023-03-21T12:09:41;14.90;99.90
48535;DHT22;34323;52.022;5.686;2023-03-21T12:23:26;15.50;99.90
48535;DHT22;34323;52.022;5.686;2023-03-21T12:31:15;15.10;99.90
48535;DHT22;34323;52.022;5.686;2023-03-21T12:34:02;15.50;99.90
48535;DHT22;34323;52.022;5.686;2023-03-21T12:39:29;16.10;99.90
48535;DHT22;34323;52.022;5.686;2023-03-21T12:44:48;15.90;99.90
48535;DHT22;34323;52.022;5.686;2023-03-21T12:47:30;15.10;99.90
48535;DHT22;34323;52.022;5.686;2023-03-21T12:50:04;15.20;99.90
48535;DHT22;34323;52.022;5.686;2023-03-21T12:52:58;15.80;99.90
48535;DHT22;34323;52.022;5.686;2023-03-21T12:55:33;16.10;99.90
48535;DHT22;34323;52.022;5.686;2023-03-21T13:00:47;16.90;99.90
48535;DHT22;34323;52.022;5.686;2023-03-21T13:03:20;16.70;99.90
48535;DHT22;34323;52.022;5.686;2023-03-21T13:06:00;16.50;99.90
48535;DHT22;34323;52.022;5.686;2023-03-21T13:08:40;16.50;99.90
48535;DHT22;34323;52.022;5.686;2023-03-21T13:11:12;16.60;99.90
48535;DHT22;34323;52.022;5.686;2023-03-21T13:14:11;16.90;99.90
48535;DHT22;34323;52.022;5.686;2023-03-21T13:16:40;16.80;99.90
48535;DHT22;34323;52.022;5.686;2023-03-21T13:19:22;16.90;99.90
48535;DHT22;34323;52.022;5.686;2023-03-21T13:24:49;17.10;99.90
48535;DHT22;34323;52.022;5.686;2023-03-21T13:27:32;17.30;99.90
48535;DHT22;34323;52.022;5.686;2023-03-21T13:32:43;17.40;99.90
48535;DHT22;34323;52.022;5.686;2023-03-21T13:37:53;17.20;99.90
48535;DHT22;34323;52.022;5.686;2023-03-21T13:43:43;18.10;99.90
48535;DHT22;34323;52.022;5.686;2023-03-21T13:46:10;18.90;99.90
48535;DHT22;34323;52.022;5.686;2023-03-21T13:48:43;20.30;99.90
48535;DHT22;34323;52.022;5.686;2023-03-21T13:51:08;20.60;99.90
48535;DHT22;34323;52.022;5.686;2023-03-21T13:53:38;19.80;99.90
48535;DHT22;34323;52.022;5.686;2023-03-21T14:01:35;17.80;99.90
48535;DHT22;34323;52.022;5.686;2023-03-21T14:04:18;17.20;99.90
48535;DHT22;34323;52.022;5.686;2023-03-21T14:06:54;17.50;99.90
48535;DHT22;34323;52.022;5.686;2023-03-21T14:09:43;18.00;99.90
48535;DHT22;34323;52.022;5.686;2023-03-21T14:12:14;18.20;99.90
48535;DHT22;34323;52.022;5.686;2023-03-21T14:14:47;18.30;99.90
48535;DHT22;34323;52.022;5.686;2023-03-21T14:17:24;18.10;99.90
48535;DHT22;34323;52.022;5.686;2023-03-21T14:19:56;17.70;99.90
48535;DHT22;34323;52.022;5.686;2023-03-21T14:22:23;17.70;99.90
48535;DHT22;34323;52.022;5.686;2023-03-21T14:24:59;17.50;99.90
48535;DHT22;34323;52.022;5.686;2023-03-21T14:27:29;17.60;99.90
48535;DHT22;34323;52.022;5.686;2023-03-21T14:29:57;17.40;99.90
48535;DHT22;34323;52.022;5.686;2023-03-21T14:32:25;17.20;99.90
48535;DHT22;34323;52.022;5.686;2023-03-21T14:34:53;17.20;99.90
48535;DHT22;34323;52.022;5.686;2023-03-21T14:37:40;17.50;99.90
48535;DHT22;34323;52.022;5.686;2023-03-21T14:40:20;17.20;99.90
48535;DHT22;34323;52.022;5.686;2023-03-21T14:42:47;17.20;99.90
48535;DHT22;34323;52.022;5.686;2023-03-21T14:45:20;16.60;99.90
48535;DHT22;34323;52.022;5.686;2023-03-21T14:48:09;16.50;99.90
48535;DHT22;34323;52.022;5.686;2023-03-21T14:50:53;17.00;99.90
48535;DHT22;34323;52.022;5.686;2023-03-21T14:53:22;17.70;99.90
48535;DHT22;34323;52.022;5.686;2023-03-21T14:55:58;17.30;99.90
48535;DHT22;34323;52.022;5.686;2023-03-21T14:58:25;17.50;99.90
48535;DHT22;34323;52.022;5.686;2023-03-21T15:00:54;17.80;99.90
48535;DHT22;34323;52.022;5.686;2023-03-21T15:03:22;18.00;99.90
48535;DHT22;34323;52.022;5.686;2023-03-21T15:05:49;17.40;99.90
48535;DHT22;34323;52.022;5.686;2023-03-21T15:08:17;17.20;99.90
48535;DHT22;34323;52.022;5.686;2023-03-21T15:10:56;17.30;99.90
48535;DHT22;34323;52.022;5.686;2023-03-21T15:13:26;17.00;99.90
48535;DHT22;34323;52.022;5.686;2023-03-21T15:15:52;17.00;99.90
48535;DHT22;34323;52.022;5.686;2023-03-21T15:18:25;16.50;99.90
48535;DHT22;34323;52.022;5.686;2023-03-21T15:20:52;16.40;99.90
48535;DHT22;34323;52.022;5.686;2023-03-21T15:23:34;17.00;99.90
48535;DHT22;34323;52.022;5.686;2023-03-21T15:26:03;17.40;99.90
48535;DHT22;34323;52.022;5.686;2023-03-21T15:28:29;17.90;99.90
48535;DHT22;34323;52.022;5.686;2023-03-21T15:30:56;18.00;99.90
48535;DHT22;34323;52.022;5.686;2023-03-21T15:33:23;18.10;99.90
48535;DHT22;34323;52.022;5.686;2023-03-21T15:35:55;17.90;99.90
48535;DHT22;34323;52.022;5.686;2023-03-21T15:38:35;18.10;99.90
48535;DHT22;34323;52.022;5.686;2023-03-21T15:43:43;17.50;99.90
48535;DHT22;34323;52.022;5.686;2023-03-21T15:46:30;18.00;99.90
48535;DHT22;34323;52.022;5.686;2023-03-21T15:49:08;18.10;99.90
48535;DHT22;34323;52.022;5.686;2023-03-21T15:51:33;18.20;99.90
48535;DHT22;34323;52.022;5.686;2023-03-21T15:54:01;17.80;99.90
48535;DHT22;34323;52.022;5.686;2023-03-21T15:56:27;17.20;99.90
48535;DHT22;34323;52.022;5.686;2023-03-21T15:59:01;16.90;99.90
48535;DHT22;34323;52.022;5.686;2023-03-21T16:01:30;17.00;99.90
48535;DHT22;34323;52.022;5.686;2023-03-21T16:04:06;17.30;99.90
48535;DHT22;34323;52.022;5.686;2023-03-21T16:06:34;17.20;99.90
48535;DHT22;34323;52.022;5.686;2023-03-21T16:09:11;17.20;99.90
48535;DHT22;34323;52.022;5.686;2023-03-21T16:11:46;17.20;99.90
48535;DHT22;34323;52.022;5.686;2023-03-21T16:14:12;17.20;99.90
48535;DHT22;34323;52.022;5.686;2023-03-21T16:16:38;17.40;99.90
48535;DHT22;34323;52.022;5.686;2023-03-21T16:19:04;17.90;99.90
48535;DHT22;34323;52.022;5.686;2023-03-21T16:21:32;18.30;99.90
48535;DHT22;34323;52.022;5.686;2023-03-21T16:23:59;18.60;99.90
48535;DHT22;34323;52.022;5.686;2023-03-21T16:26:31;18.80;99.90
48535;DHT22;34323;52.022;5.686;2023-03-21T16:28:58;19.00;99.90
48535;DHT22;34323;52.022;5.686;2023-03-21T16:31:26;19.00;99.90
48535;DHT22;34323;52.022;5.686;2023-03-21T16:33:52;18.00;99.90
48535;DHT22;34323;52.022;5.686;2023-03-21T16:36:29;17.90;99.90
48535;DHT22;34323;52.022;5.686;2023-03-21T16:38:55;17.40;99.90
48535;DHT22;34323;52.022;5.686;2023-03-21T16:41:22;17.20;99.90
48535;DHT22;34323;52.022;5.686;2023-03-21T16:43:49;17.40;99.90
48535;DHT22;34323;52.022;5.686;2023-03-21T16:46:17;17.40;99.90
48535;DHT22;34323;52.022;5.686;2023-03-21T16:48:44;17.30;99.90
48535;DHT22;34323;52.022;5.686;2023-03-21T16:51:16;17.20;99.90
48535;DHT22;34323;52.022;5.686;2023-03-21T16:53:42;16.80;99.90
48535;DHT22;34323;52.022;5.686;2023-03-21T16:56:21;16.70;99.90
48535;DHT22;34323;52.022;5.686;2023-03-21T16:58:47;16.50;99.90
48535;DHT22;34323;52.022;5.686;2023-03-21T17:01:18;16.60;99.90
48535;DHT22;34323;52.022;5.686;2023-03-21T17:03:45;16.70;99.90
48535;DHT22;34323;52.022;5.686;2023-03-21T17:06:16;16.60;99.90